createdAt,value
2018-02-08T00:00:01.116Z,1.74
2018-02-08T00:01:01.100Z,1.71
2018-02-08T00:02:01.077Z,1.72
2018-02-08T00:03:01.060Z,1.75
2018-02-08T00:04:01.039Z,1.71
2018-02-08T00:05:01.022Z,1.70
2018-02-08T00:06:01.000Z,1.77
2018-02-08T00:07:00.980Z,1.74
2018-02-08T00:08:00.961Z,1.71
2018-02-08T00:09:00.945Z,1.72
2018-02-08T00:10:00.923Z,1.77
2018-02-08T00:11:00.905Z,1.77
2018-02-08T00:12:00.892Z,1.70
2018-02-08T00:13:00.870Z,1.75
2018-02-08T00:14:00.847Z,1.75
2018-02-08T00:15:00.828Z,1.72
2018-02-08T00:16:00.805Z,1.75
2018-02-08T00:17:00.789Z,1.71
2018-02-08T00:18:00.768Z,1.74
2018-02-08T00:19:00.747Z,1.72
2018-02-08T00:20:00.729Z,1.71
2018-02-08T00:21:00.709Z,1.65
2018-02-08T00:22:00.692Z,1.77
2018-02-08T00:23:00.669Z,1.65
2018-02-08T00:24:00.650Z,1.53
2018-02-08T00:25:00.637Z,1.53
2018-02-08T00:26:00.612Z,1.56
2018-02-08T00:27:00.591Z,1.54
2018-02-08T00:28:00.575Z,1.53
2018-02-08T00:29:00.559Z,1.47
2018-02-08T00:30:00.543Z,1.47
2018-02-08T00:31:00.523Z,1.54
2018-02-08T00:32:00.495Z,1.53
2018-02-08T00:33:00.477Z,1.61
2018-02-08T00:34:00.456Z,1.65
2018-02-08T00:35:00.448Z,1.63
2018-02-08T00:36:00.419Z,1.65
2018-02-08T00:37:00.396Z,1.53
2018-02-08T00:38:00.379Z,1.60
2018-02-08T00:39:00.365Z,1.53
2018-02-08T00:40:00.342Z,1.50
2018-02-08T00:41:00.331Z,1.42
2018-02-08T00:42:00.302Z,1.43
2018-02-08T00:43:00.287Z,1.38
2018-02-08T00:44:00.264Z,1.36
2018-02-08T00:45:00.247Z,1.31
2018-02-08T00:46:00.223Z,1.36
2018-02-08T00:47:00.208Z,1.36
2018-02-08T00:48:00.183Z,1.32
2018-02-08T00:49:00.163Z,1.36
2018-02-08T00:50:00.151Z,1.32
2018-02-08T00:51:00.122Z,1.35
2018-02-08T00:52:00.104Z,1.35
2018-02-08T00:53:00.086Z,1.42
2018-02-08T00:54:00.066Z,1.42
2018-02-08T00:55:00.049Z,1.32
2018-02-08T00:56:00.030Z,1.31
2018-02-08T00:57:00.017Z,1.28
2018-02-08T00:57:59.994Z,1.24
2018-02-08T00:58:59.967Z,1.34
2018-02-08T00:59:59.945Z,1.36
2018-02-08T01:00:59.927Z,1.32
2018-02-08T01:01:59.911Z,1.39
2018-02-08T01:02:59.892Z,1.34
2018-02-08T01:03:59.866Z,1.35
2018-02-08T01:04:59.849Z,1.47
2018-02-08T01:05:59.827Z,1.44
2018-02-08T01:06:59.808Z,1.36
2018-02-08T01:07:59.787Z,1.39
2018-02-08T01:08:59.769Z,1.42
2018-02-08T01:09:59.747Z,1.49
2018-02-08T01:10:59.730Z,1.49
2018-02-08T01:11:59.711Z,1.39
2018-02-08T01:12:59.692Z,1.35
2018-02-08T01:13:59.671Z,1.43
2018-02-08T01:14:59.656Z,1.39
2018-02-08T01:15:59.631Z,1.32
2018-02-08T01:16:59.615Z,1.32
2018-02-08T01:17:59.591Z,1.42
2018-02-08T01:18:59.570Z,1.32
2018-02-08T01:19:59.551Z,1.34
2018-02-08T01:20:59.530Z,1.34
2018-02-08T01:21:59.524Z,1.34
2018-02-08T01:22:59.492Z,1.38
2018-02-08T01:23:59.472Z,1.34
2018-02-08T01:24:59.452Z,1.28
2018-02-08T01:25:59.438Z,1.31
2018-02-08T01:26:59.411Z,1.28
2018-02-08T01:27:59.393Z,1.24
2018-02-08T01:28:59.372Z,1.26
2018-02-08T01:29:59.353Z,1.29
2018-02-08T01:30:59.330Z,1.31
2018-02-08T01:31:59.314Z,1.17
2018-02-08T01:32:59.301Z,1.24
2018-02-08T01:33:59.278Z,1.20
2018-02-08T01:34:59.259Z,1.29
2018-02-08T01:35:59.233Z,1.28
2018-02-08T01:36:59.214Z,1.21
2018-02-08T01:37:59.194Z,1.28
2018-02-08T01:38:59.180Z,1.31
2018-02-08T01:39:59.154Z,1.29
2018-02-08T01:40:59.151Z,1.26
2018-02-08T01:41:59.116Z,1.26
2018-02-08T01:42:59.093Z,1.21
2018-02-08T01:43:59.076Z,1.07
2018-02-08T01:44:59.056Z,1.10
2018-02-08T01:45:59.041Z,1.24
2018-02-08T01:46:59.012Z,1.25
2018-02-08T01:47:59.003Z,1.25
2018-02-08T01:48:58.974Z,1.35
2018-02-08T01:49:58.960Z,1.35
2018-02-08T01:50:58.942Z,1.28
2018-02-08T01:51:58.914Z,1.35
2018-02-08T01:52:58.900Z,1.32
2018-02-08T01:53:58.874Z,1.47
2018-02-08T01:54:58.854Z,1.49
2018-02-08T01:55:58.834Z,1.52
2018-02-08T01:56:58.814Z,1.50
2018-02-08T01:57:58.803Z,1.43
2018-02-08T01:58:58.774Z,1.36
2018-02-08T01:59:58.761Z,1.39
2018-02-08T02:00:58.734Z,1.42
2018-02-08T02:01:58.723Z,1.44
2018-02-08T02:02:58.701Z,1.50
2018-02-08T02:03:58.680Z,1.50
2018-02-08T02:04:58.654Z,1.53
2018-02-08T02:05:58.642Z,1.56
2018-02-08T02:06:58.617Z,1.60
2018-02-08T02:07:58.595Z,1.49
2018-02-08T02:08:58.583Z,1.47
2018-02-08T02:09:58.563Z,1.50
2018-02-08T02:10:58.538Z,1.47
2018-02-08T02:11:58.524Z,1.61
2018-02-08T02:12:58.497Z,1.56
2018-02-08T02:13:58.479Z,1.52
2018-02-08T02:14:58.458Z,1.47
2018-02-08T02:15:58.445Z,1.47
2018-02-08T02:16:58.421Z,1.52
2018-02-08T02:17:58.400Z,1.46
2018-02-08T02:18:58.387Z,1.42
2018-02-08T02:19:58.361Z,1.39
2018-02-08T02:20:58.342Z,1.44
2018-02-08T02:21:58.324Z,1.46
2018-02-08T02:22:58.300Z,1.56
2018-02-08T02:23:58.287Z,1.53
2018-02-08T02:24:58.262Z,1.49
2018-02-08T02:25:58.244Z,1.47
2018-02-08T02:26:58.225Z,1.53
2018-02-08T02:27:58.203Z,1.56
2018-02-08T02:28:58.187Z,1.50
2018-02-08T02:29:58.172Z,1.49
2018-02-08T02:30:58.153Z,1.57
2018-02-08T02:31:58.134Z,1.47
2018-02-08T02:32:58.108Z,1.43
2018-02-08T02:33:58.088Z,1.50
2018-02-08T02:34:58.068Z,1.42
2018-02-08T02:35:58.049Z,1.44
2018-02-08T02:36:58.030Z,1.52
2018-02-08T02:37:58.011Z,1.52
2018-02-08T02:38:57.993Z,1.54
2018-02-08T02:39:57.971Z,1.56
2018-02-08T02:40:57.954Z,1.54
2018-02-08T02:41:57.934Z,1.57
2018-02-08T02:42:57.915Z,1.53
2018-02-08T02:43:57.933Z,1.53
2018-02-08T02:44:57.877Z,1.63
2018-02-08T02:45:57.862Z,1.52
2018-02-08T02:46:57.841Z,1.72
2018-02-08T02:47:57.826Z,1.61
2018-02-08T02:48:57.800Z,1.57
2018-02-08T02:49:57.787Z,1.75
2018-02-08T02:50:57.768Z,1.71
2018-02-08T02:51:57.750Z,1.71
2018-02-08T02:52:57.725Z,1.72
2018-02-08T02:53:57.705Z,1.70
2018-02-08T02:54:57.686Z,1.68
2018-02-08T02:55:57.667Z,1.64
2018-02-08T02:56:57.655Z,1.68
2018-02-08T02:57:57.630Z,1.57
2018-02-08T02:58:57.607Z,1.63
2018-02-08T02:59:57.590Z,1.68
2018-02-08T03:00:57.579Z,1.57
2018-02-08T03:01:57.551Z,1.61
2018-02-08T03:02:57.532Z,1.56
2018-02-08T03:03:57.512Z,1.64
2018-02-08T03:04:57.499Z,1.57
2018-02-08T03:05:57.476Z,1.60
2018-02-08T03:06:57.455Z,1.53
2018-02-08T03:07:57.435Z,1.42
2018-02-08T03:08:57.418Z,1.46
2018-02-08T03:09:57.399Z,1.52
2018-02-08T03:10:57.384Z,1.50
2018-02-08T03:11:57.360Z,1.39
2018-02-08T03:12:57.342Z,1.43
2018-02-08T03:13:57.329Z,1.47
2018-02-08T03:14:57.301Z,1.68
2018-02-08T03:15:57.283Z,1.64
2018-02-08T03:16:57.269Z,1.67
2018-02-08T03:17:57.245Z,1.68
2018-02-08T03:18:57.231Z,1.57
2018-02-08T03:19:57.207Z,1.46
2018-02-08T03:20:57.194Z,1.52
2018-02-08T03:21:57.167Z,1.47
2018-02-08T03:22:57.149Z,1.57
2018-02-08T03:23:57.136Z,1.54
2018-02-08T03:24:57.109Z,1.57
2018-02-08T03:25:57.100Z,1.54
2018-02-08T03:26:57.071Z,1.56
2018-02-08T03:27:57.060Z,1.65
2018-02-08T03:28:57.039Z,1.72
2018-02-08T03:29:57.022Z,1.67
2018-02-08T03:30:57.000Z,1.67
2018-02-08T03:31:56.976Z,1.57
2018-02-08T03:32:56.959Z,1.65
2018-02-08T03:33:56.942Z,1.60
2018-02-08T03:34:56.917Z,1.57
2018-02-08T03:35:56.898Z,1.65
2018-02-08T03:36:56.882Z,1.53
2018-02-08T03:37:56.866Z,1.50
2018-02-08T03:38:56.842Z,1.67
2018-02-08T03:39:56.822Z,1.56
2018-02-08T03:40:56.809Z,1.46
2018-02-08T03:41:56.793Z,1.50
2018-02-08T03:42:56.765Z,1.53
2018-02-08T03:43:56.745Z,1.54
2018-02-08T03:44:56.728Z,1.49
2018-02-08T03:45:56.716Z,1.50
2018-02-08T03:46:56.688Z,1.64
2018-02-08T03:47:56.669Z,1.53
2018-02-08T03:48:56.651Z,1.77
2018-02-08T03:49:56.637Z,1.77
2018-02-08T03:50:56.613Z,1.74
2018-02-08T03:51:56.601Z,1.72
2018-02-08T03:52:56.577Z,1.65
2018-02-08T03:53:56.556Z,1.53
2018-02-08T03:54:56.541Z,1.46
2018-02-08T03:55:56.516Z,1.39
2018-02-08T03:56:56.507Z,1.36
2018-02-08T03:57:56.484Z,1.39
2018-02-08T03:58:56.465Z,1.29
2018-02-08T03:59:56.439Z,1.36
2018-02-08T04:00:56.420Z,1.42
2018-02-08T04:01:56.403Z,1.35
2018-02-08T04:02:56.386Z,1.38
2018-02-08T04:03:56.361Z,1.43
2018-02-08T04:04:56.388Z,1.44
2018-02-08T04:05:56.323Z,1.43
2018-02-08T04:06:56.310Z,1.43
2018-02-08T04:07:56.284Z,1.36
2018-02-08T04:08:56.272Z,1.39
2018-02-08T04:09:56.257Z,1.39
2018-02-08T04:10:56.280Z,1.39
2018-02-08T04:11:56.206Z,1.36
2018-02-08T04:12:56.197Z,1.34
2018-02-08T04:13:56.177Z,1.36
2018-02-08T04:14:56.151Z,1.38
2018-02-08T04:15:56.128Z,1.38
2018-02-08T04:16:56.119Z,1.36
2018-02-08T04:17:56.090Z,1.35
2018-02-08T04:18:56.070Z,1.36
2018-02-08T04:19:56.056Z,1.42
2018-02-08T04:20:56.041Z,1.32
2018-02-08T04:21:56.023Z,1.39
2018-02-08T04:22:55.993Z,1.36
2018-02-08T04:23:55.983Z,1.42
2018-02-08T04:24:55.954Z,1.35
2018-02-08T04:25:55.937Z,1.35
2018-02-08T04:26:55.920Z,1.39
2018-02-08T04:27:55.896Z,1.47
2018-02-08T04:28:55.880Z,1.38
2018-02-08T04:29:55.860Z,1.49
2018-02-08T04:30:55.836Z,1.38
2018-02-08T04:31:55.819Z,1.49
2018-02-08T04:32:55.798Z,1.38
2018-02-08T04:33:55.780Z,1.39
2018-02-08T04:34:55.762Z,1.38
2018-02-08T04:35:55.746Z,1.39
2018-02-08T04:36:55.723Z,1.35
2018-02-08T04:37:55.704Z,1.42
2018-02-08T04:38:55.688Z,1.32
2018-02-08T04:39:55.666Z,1.36
2018-02-08T04:40:55.648Z,1.34
2018-02-08T04:41:55.630Z,1.34
2018-02-08T04:42:55.609Z,1.36
2018-02-08T04:43:55.589Z,1.39
2018-02-08T04:44:55.569Z,1.49
2018-02-08T04:45:55.548Z,1.60
2018-02-08T04:46:55.530Z,1.57
2018-02-08T04:47:55.511Z,1.54
2018-02-08T04:48:55.500Z,1.50
2018-02-08T04:49:55.474Z,1.63
2018-02-08T04:50:55.454Z,1.65
2018-02-08T04:51:55.437Z,1.71
2018-02-08T04:52:55.416Z,1.60
2018-02-08T04:53:55.405Z,1.68
2018-02-08T04:54:55.378Z,1.71
2018-02-08T04:55:55.361Z,1.68
2018-02-08T04:56:55.340Z,1.68
2018-02-08T04:57:55.320Z,1.53
2018-02-08T04:58:55.306Z,1.60
2018-02-08T04:59:55.282Z,1.60
2018-02-08T05:00:55.268Z,1.50
2018-02-08T05:01:55.245Z,1.49
2018-02-08T05:02:55.225Z,1.47
2018-02-08T05:03:55.209Z,1.49
2018-02-08T05:04:55.187Z,1.54
2018-02-08T05:05:55.167Z,1.44
2018-02-08T05:06:55.156Z,1.38
2018-02-08T05:07:55.129Z,1.34
2018-02-08T05:08:55.115Z,1.44
2018-02-08T05:09:55.091Z,1.43
2018-02-08T05:10:55.075Z,1.34
2018-02-08T05:11:55.054Z,1.39
2018-02-08T05:12:55.044Z,1.39
2018-02-08T05:13:55.019Z,1.54
2018-02-08T05:14:54.997Z,1.60
2018-02-08T05:15:54.981Z,1.53
2018-02-08T05:16:54.957Z,1.47
2018-02-08T05:17:54.938Z,1.47
2018-02-08T05:18:54.918Z,1.57
2018-02-08T05:19:54.911Z,1.63
2018-02-08T05:20:54.883Z,1.52
2018-02-08T05:21:54.864Z,1.50
2018-02-08T05:22:54.843Z,1.46
2018-02-08T05:23:54.827Z,1.50
2018-02-08T05:24:54.804Z,1.43
2018-02-08T05:25:54.788Z,1.39
2018-02-08T05:26:54.764Z,1.35
2018-02-08T05:27:54.757Z,1.35
2018-02-08T05:28:54.733Z,1.32
2018-02-08T05:29:54.718Z,1.31
2018-02-08T05:30:54.691Z,1.34
2018-02-08T05:31:54.678Z,1.31
2018-02-08T05:32:54.700Z,1.34
2018-02-08T05:33:54.632Z,1.34
2018-02-08T05:34:54.723Z,1.25
2018-02-08T05:35:54.601Z,1.31
2018-02-08T05:36:54.580Z,1.29
2018-02-08T05:37:54.614Z,1.35
2018-02-08T05:38:54.540Z,1.36
2018-02-08T05:39:54.522Z,1.35
2018-02-08T05:40:54.499Z,1.38
2018-02-08T05:41:54.479Z,1.31
2018-02-08T05:42:54.459Z,1.31
2018-02-08T05:43:54.440Z,1.39
2018-02-08T05:44:54.421Z,1.31
2018-02-08T05:45:54.412Z,1.38
2018-02-08T05:46:54.384Z,1.31
2018-02-08T05:47:54.366Z,1.36
2018-02-08T05:48:54.349Z,1.31
2018-02-08T05:49:54.325Z,1.28
2018-02-08T05:50:54.315Z,1.24
2018-02-08T05:51:54.287Z,1.13
2018-02-08T05:52:54.305Z,1.14
2018-02-08T05:53:54.247Z,1.26
2018-02-08T05:54:54.240Z,1.21
2018-02-08T05:55:54.223Z,1.29
2018-02-08T05:56:54.195Z,1.29
2018-02-08T05:57:54.171Z,1.32
2018-02-08T05:58:54.156Z,1.32
2018-02-08T05:59:54.134Z,1.38
2018-02-08T06:00:54.112Z,1.34
2018-02-08T06:01:54.100Z,1.35
2018-02-08T06:02:54.073Z,1.34
2018-02-08T06:03:54.052Z,1.34
2018-02-08T06:04:54.038Z,1.29
2018-02-08T06:05:54.016Z,1.35
2018-02-08T06:06:54.000Z,1.31
2018-02-08T06:07:53.983Z,1.32
2018-02-08T06:08:53.956Z,1.28
2018-02-08T06:09:53.942Z,1.28
2018-02-08T06:10:53.922Z,1.24
2018-02-08T06:11:53.905Z,1.16
2018-02-08T06:12:53.879Z,1.16
2018-02-08T06:13:53.859Z,1.29
2018-02-08T06:14:53.840Z,1.29
2018-02-08T06:15:53.824Z,1.26
2018-02-08T06:16:53.800Z,1.29
2018-02-08T06:17:53.792Z,1.34
2018-02-08T06:18:53.761Z,1.32
2018-02-08T06:19:53.791Z,1.21
2018-02-08T06:20:53.731Z,1.34
2018-02-08T06:21:53.712Z,1.25
2018-02-08T06:22:53.686Z,1.29
2018-02-08T06:23:53.703Z,1.28
2018-02-08T06:24:53.655Z,1.43
2018-02-08T06:25:53.632Z,1.24
2018-02-08T06:26:53.605Z,1.26
2018-02-08T06:27:53.587Z,1.34
2018-02-08T06:28:53.572Z,1.32
2018-02-08T06:29:53.549Z,1.29
2018-02-08T06:30:53.528Z,1.28
2018-02-08T06:31:53.508Z,1.21
2018-02-08T06:32:53.494Z,1.35
2018-02-08T06:33:53.468Z,1.36
2018-02-08T06:34:53.453Z,1.31
2018-02-08T06:35:53.431Z,1.29
2018-02-08T06:36:53.415Z,1.25
2018-02-08T06:37:53.391Z,1.10
2018-02-08T06:38:53.370Z,1.10
2018-02-08T06:39:53.355Z,1.16
2018-02-08T06:40:53.332Z,1.11
2018-02-08T06:41:53.312Z,1.08
2018-02-08T06:42:53.300Z,1.18
2018-02-08T06:43:53.278Z,1.17
2018-02-08T06:44:53.252Z,1.32
2018-02-08T06:45:53.233Z,1.28
2018-02-08T06:46:53.224Z,1.34
2018-02-08T06:47:53.198Z,1.34
2018-02-08T06:48:53.182Z,1.36
2018-02-08T06:49:53.154Z,1.42
2018-02-08T06:50:53.135Z,1.32
2018-02-08T06:51:53.116Z,1.38
2018-02-08T06:52:53.100Z,1.34
2018-02-08T06:53:53.077Z,1.35
2018-02-08T06:54:53.056Z,1.44
2018-02-08T06:55:53.038Z,1.38
2018-02-08T06:56:53.024Z,1.39
2018-02-08T06:57:53.003Z,1.36
2018-02-08T06:58:52.978Z,1.42
2018-02-08T06:59:52.960Z,1.36
2018-02-08T07:00:52.939Z,1.32
2018-02-08T07:01:52.919Z,1.42
2018-02-08T07:02:52.906Z,1.34
2018-02-08T07:03:52.879Z,1.28
2018-02-08T07:04:52.859Z,1.29
2018-02-08T07:05:52.840Z,1.26
2018-02-08T07:06:52.820Z,1.32
2018-02-08T07:07:52.801Z,1.29
2018-02-08T07:08:52.788Z,1.39
2018-02-08T07:09:52.762Z,1.44
2018-02-08T07:10:52.781Z,1.34
2018-02-08T07:11:52.722Z,1.44
2018-02-08T07:12:52.706Z,1.54
2018-02-08T07:13:52.690Z,1.52
2018-02-08T07:14:52.667Z,1.52
2018-02-08T07:15:52.645Z,1.57
2018-02-08T07:16:52.628Z,1.63
2018-02-08T07:17:52.609Z,1.65
2018-02-08T07:18:52.595Z,1.64
2018-02-08T07:19:52.570Z,1.71
2018-02-08T07:20:52.550Z,1.67
2018-02-08T07:21:52.535Z,1.67
2018-02-08T07:22:52.513Z,1.72
2018-02-08T07:23:52.489Z,1.65
2018-02-08T07:24:52.471Z,1.68
2018-02-08T07:25:52.452Z,1.75
2018-02-08T07:26:52.437Z,1.70
2018-02-08T07:27:52.415Z,1.68
2018-02-08T07:28:52.405Z,1.75
2018-02-08T07:29:52.374Z,1.77
2018-02-08T07:30:52.355Z,1.79
2018-02-08T07:31:52.337Z,1.77
2018-02-08T07:32:52.324Z,1.72
2018-02-08T07:33:52.299Z,1.74
2018-02-08T07:34:52.282Z,1.75
2018-02-08T07:35:52.261Z,1.85
2018-02-08T07:36:52.243Z,1.83
2018-02-08T07:37:52.229Z,1.71
2018-02-08T07:38:52.202Z,1.75
2018-02-08T07:39:52.183Z,1.71
2018-02-08T07:40:52.169Z,1.74
2018-02-08T07:41:52.146Z,1.74
2018-02-08T07:42:52.134Z,1.75
2018-02-08T07:43:52.108Z,1.81
2018-02-08T07:44:52.087Z,1.79
2018-02-08T07:45:52.071Z,1.77
2018-02-08T07:46:52.049Z,1.83
2018-02-08T07:47:52.030Z,1.75
2018-02-08T07:48:52.024Z,1.75
2018-02-08T07:49:51.993Z,1.88
2018-02-08T07:50:51.979Z,1.88
2018-02-08T07:51:51.955Z,1.89
2018-02-08T07:52:51.941Z,2.05
2018-02-08T07:53:51.916Z,2.02
2018-02-08T07:54:51.903Z,1.88
2018-02-08T07:55:51.877Z,1.95
2018-02-08T07:56:51.865Z,2.04
2018-02-08T07:57:51.849Z,1.88
2018-02-08T07:58:51.821Z,2.00
2018-02-08T07:59:51.801Z,1.88
2018-02-08T08:00:51.783Z,1.90
2018-02-08T08:01:51.773Z,2.11
2018-02-08T08:02:51.745Z,2.07
2018-02-08T08:03:51.750Z,2.00
2018-02-08T08:04:51.712Z,2.15
2018-02-08T08:05:51.689Z,2.05
2018-02-08T08:06:51.672Z,2.07
2018-02-08T08:07:51.652Z,1.88
2018-02-08T08:08:51.630Z,1.89
2018-02-08T08:09:51.617Z,2.02
2018-02-08T08:10:51.598Z,2.01
2018-02-08T08:11:51.573Z,2.02
2018-02-08T08:12:51.566Z,1.90
2018-02-08T08:13:51.537Z,1.86
2018-02-08T08:14:51.521Z,1.95
2018-02-08T08:15:51.498Z,1.90
2018-02-08T08:16:51.481Z,2.00
2018-02-08T08:17:51.461Z,2.04
2018-02-08T08:18:51.447Z,2.00
2018-02-08T08:19:51.424Z,1.83
2018-02-08T08:20:51.400Z,1.77
2018-02-08T08:21:51.389Z,1.68
2018-02-08T08:22:51.364Z,1.74
2018-02-08T08:23:51.351Z,1.75
2018-02-08T08:24:51.331Z,1.75
2018-02-08T08:25:51.308Z,1.71
2018-02-08T08:26:51.292Z,1.79
2018-02-08T08:27:51.280Z,1.77
2018-02-08T08:28:51.250Z,1.77
2018-02-08T08:29:51.238Z,1.85
2018-02-08T08:30:51.211Z,1.83
2018-02-08T08:31:51.200Z,2.09
2018-02-08T08:32:51.174Z,2.11
2018-02-08T08:33:51.161Z,2.14
2018-02-08T08:34:51.141Z,2.22
2018-02-08T08:35:51.121Z,2.19
2018-02-08T08:36:51.096Z,2.22
2018-02-08T08:37:51.083Z,2.23
2018-02-08T08:38:51.062Z,2.37
2018-02-08T08:39:51.040Z,2.45
2018-02-08T08:40:51.021Z,2.41
2018-02-08T08:41:51.005Z,2.47
2018-02-08T08:42:50.985Z,2.30
2018-02-08T08:43:50.967Z,2.33
2018-02-08T08:44:50.944Z,2.40
2018-02-08T08:45:50.927Z,2.44
2018-02-08T08:46:50.910Z,2.44
2018-02-08T08:47:50.890Z,2.50
2018-02-08T08:48:50.871Z,2.50
2018-02-08T08:49:50.852Z,2.47
2018-02-08T08:50:50.832Z,2.47
2018-02-08T08:51:50.813Z,2.55
2018-02-08T08:52:50.798Z,2.51
2018-02-08T08:53:50.781Z,2.55
2018-02-08T08:54:50.758Z,2.48
2018-02-08T08:55:50.741Z,2.58
2018-02-08T08:56:50.722Z,2.61
2018-02-08T08:57:50.709Z,2.63
2018-02-08T08:58:50.685Z,2.68
2018-02-08T08:59:50.669Z,2.81
2018-02-08T09:00:50.655Z,2.80
2018-02-08T09:01:50.635Z,2.87
2018-02-08T09:02:50.618Z,2.89
2018-02-08T09:03:50.593Z,3.01
2018-02-08T09:04:50.577Z,3.04
2018-02-08T09:05:50.557Z,3.13
2018-02-08T09:06:50.538Z,3.19
2018-02-08T09:07:50.530Z,3.20
2018-02-08T09:08:50.504Z,3.28
2018-02-08T09:09:50.486Z,3.35
2018-02-08T09:10:50.465Z,3.33
2018-02-08T09:11:50.458Z,3.35
2018-02-08T09:12:50.430Z,3.22
2018-02-08T09:13:50.423Z,3.25
2018-02-08T09:14:50.397Z,3.34
2018-02-08T09:15:50.379Z,3.39
2018-02-08T09:16:50.357Z,3.34
2018-02-08T09:17:50.340Z,3.35
2018-02-08T09:18:50.322Z,3.30
2018-02-08T09:19:50.308Z,3.16
2018-02-08T09:20:50.290Z,3.22
2018-02-08T09:21:50.268Z,3.22
2018-02-08T09:22:50.251Z,3.13
2018-02-08T09:23:50.238Z,3.23
2018-02-08T09:24:50.212Z,3.16
2018-02-08T09:25:50.201Z,3.12
2018-02-08T09:26:50.183Z,3.01
2018-02-08T09:27:50.159Z,2.94
2018-02-08T09:28:50.151Z,2.89
2018-02-08T09:29:50.135Z,2.79
2018-02-08T09:30:50.112Z,2.68
2018-02-08T09:31:50.089Z,2.80
2018-02-08T09:32:50.075Z,2.86
2018-02-08T09:33:50.052Z,2.97
2018-02-08T09:34:50.039Z,2.89
2018-02-08T09:35:50.020Z,2.90
2018-02-08T09:36:50.001Z,2.89
2018-02-08T09:37:49.983Z,2.59
2018-02-08T09:38:49.963Z,2.45
2018-02-08T09:39:49.945Z,2.15
2018-02-08T09:40:49.928Z,2.08
2018-02-08T09:41:49.913Z,2.11
2018-02-08T09:42:49.893Z,2.15
2018-02-08T09:43:49.876Z,2.27
2018-02-08T09:44:49.859Z,2.40
2018-02-08T09:45:49.838Z,2.33
2018-02-08T09:46:49.820Z,2.36
2018-02-08T09:47:49.803Z,2.44
2018-02-08T09:48:49.787Z,2.50
2018-02-08T09:49:49.760Z,2.76
2018-02-08T09:50:49.742Z,2.83
2018-02-08T09:51:49.746Z,3.01
2018-02-08T09:52:49.708Z,3.05
2018-02-08T09:53:49.687Z,3.12
2018-02-08T09:54:49.674Z,3.10
2018-02-08T09:55:49.650Z,3.10
2018-02-08T09:56:49.631Z,3.16
2018-02-08T09:57:49.614Z,3.08
2018-02-08T09:58:49.606Z,3.01
2018-02-08T09:59:49.576Z,2.89
2018-02-08T10:00:49.566Z,2.97
2018-02-08T10:01:49.545Z,2.99
2018-02-08T10:02:49.526Z,3.02
2018-02-08T10:03:49.508Z,2.87
2018-02-08T10:04:49.491Z,2.73
2018-02-08T10:05:49.479Z,2.69
2018-02-08T10:06:49.447Z,2.69
2018-02-08T10:07:49.430Z,2.66
2018-02-08T10:08:49.417Z,2.68
2018-02-08T10:09:49.393Z,2.74
2018-02-08T10:10:49.373Z,2.83
2018-02-08T10:11:49.355Z,2.74
2018-02-08T10:12:49.339Z,2.86
2018-02-08T10:13:49.321Z,2.94
2018-02-08T10:14:49.299Z,3.02
2018-02-08T10:15:49.289Z,3.01
2018-02-08T10:16:49.264Z,3.04
2018-02-08T10:17:49.245Z,3.20
2018-02-08T10:18:49.225Z,3.26
2018-02-08T10:19:49.207Z,3.34
2018-02-08T10:20:49.197Z,3.34
2018-02-08T10:21:49.176Z,3.39
2018-02-08T10:22:49.156Z,3.45
2018-02-08T10:23:49.142Z,3.50
2018-02-08T10:24:49.121Z,3.53
2018-02-08T10:25:49.101Z,3.54
2018-02-08T10:26:49.082Z,3.56
2018-02-08T10:27:49.062Z,3.68
2018-02-08T10:28:49.045Z,3.77
2018-02-08T10:29:49.030Z,3.77
2018-02-08T10:30:49.056Z,3.86
2018-02-08T10:31:48.991Z,3.84
2018-02-08T10:32:48.975Z,3.95
2018-02-08T10:33:48.962Z,3.95
2018-02-08T10:34:48.939Z,4.00
2018-02-08T10:35:48.930Z,4.11
2018-02-08T10:36:48.905Z,4.11
2018-02-08T10:37:48.893Z,4.08
2018-02-08T10:38:48.873Z,4.26
2018-02-08T10:39:48.854Z,4.25
2018-02-08T10:40:48.842Z,4.18
2018-02-08T10:41:48.817Z,4.18
2018-02-08T10:42:48.807Z,4.21
2018-02-08T10:43:48.783Z,4.16
2018-02-08T10:44:48.765Z,4.26
2018-02-08T10:45:48.747Z,4.18
2018-02-08T10:46:48.728Z,4.29
2018-02-08T10:47:48.711Z,4.34
2018-02-08T10:48:48.693Z,4.29
2018-02-08T10:49:48.677Z,4.31
2018-02-08T10:50:48.665Z,4.38
2018-02-08T10:51:48.649Z,4.29
2018-02-08T10:52:48.625Z,4.31
2018-02-08T10:53:48.609Z,4.35
2018-02-08T10:54:48.590Z,4.26
2018-02-08T10:55:48.573Z,4.20
2018-02-08T10:56:48.557Z,4.20
2018-02-08T10:57:48.539Z,4.20
2018-02-08T10:58:48.522Z,4.21
2018-02-08T10:59:48.509Z,4.17
2018-02-08T11:00:48.489Z,4.18
2018-02-08T11:01:48.476Z,4.14
2018-02-08T11:02:48.455Z,3.84
2018-02-08T11:03:48.440Z,3.72
2018-02-08T11:04:48.422Z,3.72
2018-02-08T11:05:48.405Z,3.74
2018-02-08T11:06:48.395Z,3.74
2018-02-08T11:07:48.371Z,3.59
2018-02-08T11:08:48.353Z,3.62
2018-02-08T11:09:48.335Z,3.68
2018-02-08T11:10:48.318Z,3.71
2018-02-08T11:11:48.311Z,3.56
2018-02-08T11:12:48.285Z,3.42
2018-02-08T11:13:48.271Z,3.39
2018-02-08T11:14:48.256Z,3.42
2018-02-08T11:15:48.233Z,3.50
2018-02-08T11:16:48.216Z,3.63
2018-02-08T11:17:48.199Z,3.71
2018-02-08T11:18:48.182Z,3.71
2018-02-08T11:19:48.167Z,3.81
2018-02-08T11:20:48.149Z,3.93
2018-02-08T11:21:48.140Z,4.08
2018-02-08T11:22:48.113Z,4.11
2018-02-08T11:23:48.095Z,4.16
2018-02-08T11:24:48.079Z,4.18
2018-02-08T11:25:48.070Z,4.18
2018-02-08T11:26:48.045Z,4.20
2018-02-08T11:27:48.030Z,4.18
2018-02-08T11:28:48.013Z,4.18
2018-02-08T11:29:47.995Z,4.16
2018-02-08T11:30:47.983Z,4.29
2018-02-08T11:31:47.969Z,4.32
2018-02-08T11:32:47.952Z,4.32
2018-02-08T11:33:47.927Z,4.42
2018-02-08T11:34:47.910Z,4.42
2018-02-08T11:35:47.899Z,4.59
2018-02-08T11:36:47.925Z,4.57
2018-02-08T11:37:47.861Z,4.61
2018-02-08T11:38:47.845Z,4.06
2018-02-08T11:39:47.829Z,3.86
2018-02-08T11:40:47.811Z,3.72
2018-02-08T11:41:47.794Z,3.57
2018-02-08T11:42:47.775Z,3.57
2018-02-08T11:43:47.759Z,3.70
2018-02-08T11:44:47.743Z,3.75
2018-02-08T11:45:47.731Z,3.93
2018-02-08T11:46:47.711Z,3.98
2018-02-08T11:47:47.690Z,4.04
2018-02-08T11:48:47.676Z,4.04
2018-02-08T11:49:47.665Z,4.24
2018-02-08T11:50:47.640Z,4.28
2018-02-08T11:51:47.632Z,4.42
2018-02-08T11:52:47.613Z,4.42
2018-02-08T11:53:47.591Z,4.44
2018-02-08T11:54:47.574Z,4.50
2018-02-08T11:55:47.561Z,4.18
2018-02-08T11:56:47.541Z,3.78
2018-02-08T11:57:47.524Z,3.75
2018-02-08T11:58:47.508Z,3.63
2018-02-08T11:59:47.491Z,3.72
2018-02-08T12:00:47.481Z,3.86
2018-02-08T12:01:47.463Z,4.02
2018-02-08T12:02:47.439Z,4.02
2018-02-08T12:03:47.431Z,4.02
2018-02-08T12:04:47.405Z,4.10
2018-02-08T12:05:47.390Z,4.17
2018-02-08T12:06:47.378Z,4.28
2018-02-08T12:07:47.356Z,4.38
2018-02-08T12:08:47.341Z,4.44
2018-02-08T12:09:47.325Z,4.59
2018-02-08T12:10:47.305Z,4.50
2018-02-08T12:11:47.288Z,4.46
2018-02-08T12:12:47.270Z,4.59
2018-02-08T12:13:47.257Z,4.67
2018-02-08T12:14:47.237Z,4.75
2018-02-08T12:15:47.222Z,4.87
2018-02-08T12:16:47.206Z,4.87
2018-02-08T12:17:47.188Z,4.96
2018-02-08T12:18:47.179Z,5.01
2018-02-08T12:19:47.154Z,5.14
2018-02-08T12:20:47.137Z,5.15
2018-02-08T12:21:47.127Z,5.17
2018-02-08T12:22:47.104Z,5.19
2018-02-08T12:23:47.090Z,5.27
2018-02-08T12:24:47.073Z,5.32
2018-02-08T12:25:47.058Z,5.30
2018-02-08T12:26:47.042Z,5.23
2018-02-08T12:27:47.028Z,5.29
2018-02-08T12:28:47.009Z,5.29
2018-02-08T12:29:46.997Z,5.24
2018-02-08T12:30:46.975Z,5.35
2018-02-08T12:31:46.966Z,5.30
2018-02-08T12:32:46.951Z,5.44
2018-02-08T12:33:46.934Z,5.32
2018-02-08T12:34:46.910Z,5.30
2018-02-08T12:35:46.894Z,5.35
2018-02-08T12:36:46.934Z,5.32
2018-02-08T12:37:46.864Z,5.20
2018-02-08T12:38:46.843Z,5.26
2018-02-08T12:39:46.828Z,5.35
2018-02-08T12:40:46.813Z,5.30
2018-02-08T12:41:46.804Z,5.30
2018-02-08T12:42:46.788Z,5.23
2018-02-08T12:43:46.769Z,5.23
2018-02-08T12:44:46.753Z,5.23
2018-02-08T12:45:46.732Z,5.04
2018-02-08T12:46:46.715Z,5.04
2018-02-08T12:47:46.700Z,5.05
2018-02-08T12:48:46.690Z,5.05
2018-02-08T12:49:46.673Z,5.06
2018-02-08T12:50:46.650Z,5.01
2018-02-08T12:51:46.638Z,5.09
2018-02-08T12:52:46.620Z,4.96
2018-02-08T12:53:46.605Z,5.06
2018-02-08T12:54:46.594Z,5.08
2018-02-08T12:55:46.571Z,5.24
2018-02-08T12:56:46.556Z,5.19
2018-02-08T12:57:46.541Z,5.17
2018-02-08T12:58:46.522Z,5.17
2018-02-08T12:59:46.507Z,5.19
2018-02-08T13:00:46.490Z,5.11
2018-02-08T13:01:46.482Z,5.14
2018-02-08T13:02:46.467Z,5.11
2018-02-08T13:03:46.447Z,5.19
2018-02-08T13:04:46.427Z,5.27
2018-02-08T13:05:46.412Z,5.20
2018-02-08T13:06:46.404Z,5.17
2018-02-08T13:07:46.383Z,5.23
2018-02-08T13:08:46.367Z,5.22
2018-02-08T13:09:46.348Z,5.22
2018-02-08T13:10:46.330Z,5.27
2018-02-08T13:11:46.317Z,5.20
2018-02-08T13:12:46.298Z,5.17
2018-02-08T13:13:46.283Z,5.14
2018-02-08T13:14:46.267Z,5.19
2018-02-08T13:15:46.256Z,5.20
2018-02-08T13:16:46.242Z,5.19
2018-02-08T13:17:46.220Z,5.09